sensor_id;sensor_type;location;lat;lon;timestamp;P1;durP1;ratioP1;P2;durP2;ratioP2
29916;SDS011;16786;49.466;11.068;2022-10-13T00:00:59;52.28;;;30.13;;
29916;SDS011;16786;49.466;11.068;2022-10-13T00:03:32;47.75;;;28.63;;
29916;SDS011;16786;49.466;11.068;2022-10-13T00:06:03;52.33;;;29.70;;
29916;SDS011;16786;49.466;11.068;2022-10-13T00:08:33;54.58;;;30.50;;
29916;SDS011;16786;49.466;11.068;2022-10-13T00:11:01;51.97;;;29.17;;
29916;SDS011;16786;49.466;11.068;2022-10-13T00:13:40;50.70;;;29.58;;
29916;SDS011;16786;49.466;11.068;2022-10-13T00:16:08;53.45;;;28.92;;
29916;SDS011;16786;49.466;11.068;2022-10-13T00:18:37;55.13;;;28.10;;
29916;SDS011;16786;49.466;11.068;2022-10-13T00:21:08;47.83;;;27.40;;
29916;SDS011;16786;49.466;11.068;2022-10-13T00:23:38;51.90;;;30.52;;
29916;SDS011;16786;49.466;11.068;2022-10-13T00:26:07;54.20;;;30.58;;
29916;SDS011;16786;49.466;11.068;2022-10-13T00:28:37;49.55;;;28.10;;
29916;SDS011;16786;49.466;11.068;2022-10-13T00:33:45;51.88;;;29.95;;
29916;SDS011;16786;49.466;11.068;2022-10-13T00:36:17;54.45;;;30.30;;
29916;SDS011;16786;49.466;11.068;2022-10-13T00:38:45;53.30;;;30.42;;
29916;SDS011;16786;49.466;11.068;2022-10-13T00:41:13;58.17;;;31.38;;
29916;SDS011;16786;49.466;11.068;2022-10-13T00:46:32;51.55;;;29.98;;
29916;SDS011;16786;49.466;11.068;2022-10-13T00:51:45;53.20;;;31.88;;
29916;SDS011;16786;49.466;11.068;2022-10-13T00:54:16;53.00;;;30.33;;
29916;SDS011;16786;49.466;11.068;2022-10-13T00:56:46;56.47;;;32.45;;
29916;SDS011;16786;49.466;11.068;2022-10-13T00:59:26;52.95;;;30.30;;
29916;SDS011;16786;49.466;11.068;2022-10-13T01:01:55;61.33;;;32.83;;
29916;SDS011;16786;49.466;11.068;2022-10-13T01:04:25;54.47;;;31.20;;
29916;SDS011;16786;49.466;11.068;2022-10-13T01:06:56;57.33;;;32.33;;
29916;SDS011;16786;49.466;11.068;2022-10-13T01:09:24;63.30;;;32.72;;
29916;SDS011;16786;49.466;11.068;2022-10-13T01:11:59;62.05;;;31.23;;
29916;SDS011;16786;49.466;11.068;2022-10-13T01:14:33;65.30;;;32.97;;
29916;SDS011;16786;49.466;11.068;2022-10-13T01:28:08;54.75;;;30.90;;
29916;SDS011;16786;49.466;11.068;2022-10-13T01:30:57;56.85;;;31.25;;
29916;SDS011;16786;49.466;11.068;2022-10-13T01:33:56;60.97;;;32.08;;
29916;SDS011;16786;49.466;11.068;2022-10-13T01:36:35;59.08;;;31.75;;
29916;SDS011;16786;49.466;11.068;2022-10-13T01:39:14;61.58;;;33.38;;
29916;SDS011;16786;49.466;11.068;2022-10-13T01:42:05;53.50;;;29.73;;
29916;SDS011;16786;49.466;11.068;2022-10-13T01:44:40;61.20;;;32.72;;
29916;SDS011;16786;49.466;11.068;2022-10-13T01:47:11;58.53;;;32.15;;
29916;SDS011;16786;49.466;11.068;2022-10-13T01:49:42;59.05;;;32.17;;
29916;SDS011;16786;49.466;11.068;2022-10-13T01:52:15;58.60;;;31.15;;
29916;SDS011;16786;49.466;11.068;2022-10-13T01:54:49;56.30;;;29.88;;
29916;SDS011;16786;49.466;11.068;2022-10-13T01:59:59;54.13;;;31.55;;
29916;SDS011;16786;49.466;11.068;2022-10-13T02:08:21;52.20;;;29.23;;
29916;SDS011;16786;49.466;11.068;2022-10-13T02:10:58;56.65;;;29.92;;
29916;SDS011;16786;49.466;11.068;2022-10-13T02:13:31;48.17;;;28.38;;
29916;SDS011;16786;49.466;11.068;2022-10-13T02:16:06;55.80;;;30.13;;
29916;SDS011;16786;49.466;11.068;2022-10-13T02:18:34;48.90;;;26.75;;
29916;SDS011;16786;49.466;11.068;2022-10-13T02:21:04;51.95;;;27.67;;
29916;SDS011;16786;49.466;11.068;2022-10-13T02:23:31;51.78;;;28.70;;
29916;SDS011;16786;49.466;11.068;2022-10-13T02:25:59;52.30;;;29.95;;
29916;SDS011;16786;49.466;11.068;2022-10-13T02:28:27;51.03;;;29.38;;
29916;SDS011;16786;49.466;11.068;2022-10-13T02:30:55;49.72;;;28.27;;
29916;SDS011;16786;49.466;11.068;2022-10-13T02:33:22;50.38;;;27.60;;
29916;SDS011;16786;49.466;11.068;2022-10-13T02:35:49;55.63;;;29.73;;
29916;SDS011;16786;49.466;11.068;2022-10-13T02:38:16;51.78;;;28.02;;
29916;SDS011;16786;49.466;11.068;2022-10-13T02:40:44;51.50;;;28.65;;
29916;SDS011;16786;49.466;11.068;2022-10-13T02:43:11;51.55;;;29.10;;
29916;SDS011;16786;49.466;11.068;2022-10-13T02:45:38;53.20;;;27.80;;
29916;SDS011;16786;49.466;11.068;2022-10-13T02:48:05;49.95;;;28.23;;
29916;SDS011;16786;49.466;11.068;2022-10-13T02:50:33;45.15;;;26.85;;
29916;SDS011;16786;49.466;11.068;2022-10-13T02:53:00;50.45;;;28.25;;
29916;SDS011;16786;49.466;11.068;2022-10-13T02:55:28;54.40;;;30.40;;
29916;SDS011;16786;49.466;11.068;2022-10-13T02:57:55;50.47;;;29.33;;
29916;SDS011;16786;49.466;11.068;2022-10-13T03:00:23;49.20;;;27.30;;
29916;SDS011;16786;49.466;11.068;2022-10-13T03:02:50;50.35;;;27.65;;
29916;SDS011;16786;49.466;11.068;2022-10-13T03:05:17;54.50;;;27.30;;
29916;SDS011;16786;49.466;11.068;2022-10-13T03:07:45;51.05;;;28.88;;
29916;SDS011;16786;49.466;11.068;2022-10-13T03:10:12;45.85;;;27.45;;
29916;SDS011;16786;49.466;11.068;2022-10-13T03:12:39;48.63;;;26.40;;
29916;SDS011;16786;49.466;11.068;2022-10-13T03:15:07;50.60;;;26.40;;
29916;SDS011;16786;49.466;11.068;2022-10-13T03:17:35;46.13;;;27.23;;
29916;SDS011;16786;49.466;11.068;2022-10-13T03:20:02;47.70;;;26.15;;
29916;SDS011;16786;49.466;11.068;2022-10-13T03:22:30;47.67;;;27.45;;
29916;SDS011;16786;49.466;11.068;2022-10-13T03:24:58;50.70;;;26.52;;
29916;SDS011;16786;49.466;11.068;2022-10-13T03:27:26;46.78;;;27.10;;
29916;SDS011;16786;49.466;11.068;2022-10-13T03:29:53;46.22;;;27.23;;
29916;SDS011;16786;49.466;11.068;2022-10-13T03:32:20;50.03;;;27.02;;
29916;SDS011;16786;49.466;11.068;2022-10-13T03:34:49;48.03;;;27.73;;
29916;SDS011;16786;49.466;11.068;2022-10-13T03:37:17;52.00;;;28.13;;
29916;SDS011;16786;49.466;11.068;2022-10-13T03:39:44;46.42;;;26.33;;
29916;SDS011;16786;49.466;11.068;2022-10-13T03:42:12;46.38;;;27.45;;
29916;SDS011;16786;49.466;11.068;2022-10-13T03:44:39;47.17;;;26.85;;
29916;SDS011;16786;49.466;11.068;2022-10-13T03:47:06;52.28;;;27.77;;
29916;SDS011;16786;49.466;11.068;2022-10-13T03:49:34;52.13;;;27.42;;
29916;SDS011;16786;49.466;11.068;2022-10-13T03:52:04;45.35;;;26.00;;
29916;SDS011;16786;49.466;11.068;2022-10-13T03:54:31;51.78;;;28.38;;
29916;SDS011;16786;49.466;11.068;2022-10-13T03:57:01;46.10;;;26.77;;
29916;SDS011;16786;49.466;11.068;2022-10-13T03:59:28;49.05;;;28.25;;
29916;SDS011;16786;49.466;11.068;2022-10-13T04:02:02;54.58;;;29.13;;
29916;SDS011;16786;49.466;11.068;2022-10-13T04:04:29;49.10;;;27.17;;
29916;SDS011;16786;49.466;11.068;2022-10-13T04:06:57;47.97;;;26.80;;
29916;SDS011;16786;49.466;11.068;2022-10-13T04:09:24;49.03;;;27.58;;
29916;SDS011;16786;49.466;11.068;2022-10-13T04:11:51;52.40;;;28.08;;
29916;SDS011;16786;49.466;11.068;2022-10-13T04:14:19;48.85;;;27.52;;
29916;SDS011;16786;49.466;11.068;2022-10-13T04:16:46;48.08;;;27.23;;
29916;SDS011;16786;49.466;11.068;2022-10-13T04:19:14;47.90;;;28.75;;
29916;SDS011;16786;49.466;11.068;2022-10-13T04:21:42;49.65;;;28.58;;
29916;SDS011;16786;49.466;11.068;2022-10-13T04:24:12;49.90;;;27.00;;
29916;SDS011;16786;49.466;11.068;2022-10-13T04:26:40;48.83;;;28.00;;
29916;SDS011;16786;49.466;11.068;2022-10-13T04:29:08;48.20;;;26.45;;
29916;SDS011;16786;49.466;11.068;2022-10-13T04:31:37;49.28;;;27.50;;
29916;SDS011;16786;49.466;11.068;2022-10-13T04:34:05;44.00;;;25.50;;
29916;SDS011;16786;49.466;11.068;2022-10-13T04:36:33;47.67;;;25.15;;
29916;SDS011;16786;49.466;11.068;2022-10-13T04:39:01;51.80;;;26.52;;
29916;SDS011;16786;49.466;11.068;2022-10-13T04:41:28;44.45;;;26.13;;
29916;SDS011;16786;49.466;11.068;2022-10-13T04:43:55;51.28;;;29.33;;
29916;SDS011;16786;49.466;11.068;2022-10-13T04:46:24;49.97;;;29.38;;
29916;SDS011;16786;49.466;11.068;2022-10-13T04:51:27;52.85;;;28.25;;
29916;SDS011;16786;49.466;11.068;2022-10-13T04:53:59;49.05;;;27.63;;
29916;SDS011;16786;49.466;11.068;2022-10-13T04:56:27;51.15;;;27.92;;
29916;SDS011;16786;49.466;11.068;2022-10-13T04:58:59;48.72;;;27.50;;
29916;SDS011;16786;49.466;11.068;2022-10-13T05:01:27;52.92;;;29.15;;
29916;SDS011;16786;49.466;11.068;2022-10-13T05:03:56;60.55;;;30.55;;
29916;SDS011;16786;49.466;11.068;2022-10-13T05:06:27;55.70;;;29.77;;
29916;SDS011;16786;49.466;11.068;2022-10-13T05:08:56;53.35;;;30.00;;
29916;SDS011;16786;49.466;11.068;2022-10-13T05:11:24;54.10;;;30.55;;
29916;SDS011;16786;49.466;11.068;2022-10-13T05:13:52;52.33;;;30.13;;
29916;SDS011;16786;49.466;11.068;2022-10-13T05:16:20;55.58;;;31.35;;
29916;SDS011;16786;49.466;11.068;2022-10-13T05:18:49;56.53;;;29.48;;
29916;SDS011;16786;49.466;11.068;2022-10-13T05:21:21;55.95;;;29.35;;
29916;SDS011;16786;49.466;11.068;2022-10-13T05:23:54;52.17;;;28.63;;
29916;SDS011;16786;49.466;11.068;2022-10-13T05:26:23;51.85;;;28.30;;
29916;SDS011;16786;49.466;11.068;2022-10-13T05:28:57;57.08;;;29.67;;
29916;SDS011;16786;49.466;11.068;2022-10-13T05:31:29;50.90;;;29.10;;
29916;SDS011;16786;49.466;11.068;2022-10-13T05:33:58;52.67;;;29.10;;
29916;SDS011;16786;49.466;11.068;2022-10-13T05:36:26;49.65;;;28.83;;
29916;SDS011;16786;49.466;11.068;2022-10-13T05:38:59;49.80;;;26.73;;
29916;SDS011;16786;49.466;11.068;2022-10-13T05:41:31;54.50;;;28.92;;
29916;SDS011;16786;49.466;11.068;2022-10-13T05:44:01;50.50;;;29.38;;
29916;SDS011;16786;49.466;11.068;2022-10-13T05:46:32;50.95;;;27.40;;
29916;SDS011;16786;49.466;11.068;2022-10-13T05:48:59;55.83;;;28.17;;
29916;SDS011;16786;49.466;11.068;2022-10-13T05:51:34;48.70;;;26.67;;
29916;SDS011;16786;49.466;11.068;2022-10-13T05:54:16;54.72;;;28.92;;
29916;SDS011;16786;49.466;11.068;2022-10-13T05:57:00;48.95;;;27.58;;
29916;SDS011;16786;49.466;11.068;2022-10-13T05:59:28;55.17;;;28.35;;
29916;SDS011;16786;49.466;11.068;2022-10-13T06:02:00;49.08;;;27.00;;
29916;SDS011;16786;49.466;11.068;2022-10-13T06:04:30;49.08;;;27.17;;
29916;SDS011;16786;49.466;11.068;2022-10-13T06:07:01;65.25;;;28.13;;
29916;SDS011;16786;49.466;11.068;2022-10-13T06:09:31;52.58;;;27.45;;
29916;SDS011;16786;49.466;11.068;2022-10-13T06:12:01;53.95;;;27.75;;
29916;SDS011;16786;49.466;11.068;2022-10-13T06:14:28;50.70;;;26.52;;
29916;SDS011;16786;49.466;11.068;2022-10-13T06:16:56;50.38;;;26.48;;
29916;SDS011;16786;49.466;11.068;2022-10-13T06:19:23;47.90;;;27.00;;
29916;SDS011;16786;49.466;11.068;2022-10-13T06:21:51;48.20;;;26.35;;
29916;SDS011;16786;49.466;11.068;2022-10-13T06:24:18;49.33;;;25.70;;
29916;SDS011;16786;49.466;11.068;2022-10-13T06:26:45;52.55;;;26.95;;
29916;SDS011;16786;49.466;11.068;2022-10-13T06:29:13;51.42;;;27.02;;
29916;SDS011;16786;49.466;11.068;2022-10-13T06:31:41;44.97;;;25.95;;
29916;SDS011;16786;49.466;11.068;2022-10-13T06:34:10;44.47;;;24.98;;
29916;SDS011;16786;49.466;11.068;2022-10-13T06:36:42;47.55;;;25.77;;
29916;SDS011;16786;49.466;11.068;2022-10-13T06:39:10;45.55;;;25.48;;
29916;SDS011;16786;49.466;11.068;2022-10-13T06:41:38;45.58;;;25.90;;
29916;SDS011;16786;49.466;11.068;2022-10-13T06:44:06;46.45;;;24.70;;
29916;SDS011;16786;49.466;11.068;2022-10-13T06:46:34;46.97;;;25.40;;
29916;SDS011;16786;49.466;11.068;2022-10-13T06:49:01;47.10;;;24.60;;
29916;SDS011;16786;49.466;11.068;2022-10-13T06:51:29;46.85;;;24.13;;
29916;SDS011;16786;49.466;11.068;2022-10-13T06:53:57;44.78;;;24.60;;
29916;SDS011;16786;49.466;11.068;2022-10-13T06:56:28;42.75;;;23.48;;
29916;SDS011;16786;49.466;11.068;2022-10-13T06:58:58;41.85;;;24.70;;
29916;SDS011;16786;49.466;11.068;2022-10-13T07:01:26;52.35;;;24.70;;
29916;SDS011;16786;49.466;11.068;2022-10-13T07:03:53;43.85;;;23.45;;
29916;SDS011;16786;49.466;11.068;2022-10-13T07:06:21;47.33;;;24.80;;
29916;SDS011;16786;49.466;11.068;2022-10-13T07:08:49;41.63;;;24.40;;
29916;SDS011;16786;49.466;11.068;2022-10-13T07:11:18;44.92;;;25.05;;
29916;SDS011;16786;49.466;11.068;2022-10-13T07:13:50;41.72;;;23.17;;
29916;SDS011;16786;49.466;11.068;2022-10-13T07:16:20;39.33;;;23.40;;
29916;SDS011;16786;49.466;11.068;2022-10-13T07:18:47;43.47;;;24.08;;
29916;SDS011;16786;49.466;11.068;2022-10-13T07:21:15;42.50;;;22.90;;
29916;SDS011;16786;49.466;11.068;2022-10-13T07:23:42;44.75;;;22.98;;
29916;SDS011;16786;49.466;11.068;2022-10-13T07:26:11;40.95;;;22.92;;
29916;SDS011;16786;49.466;11.068;2022-10-13T07:28:41;41.00;;;23.20;;
29916;SDS011;16786;49.466;11.068;2022-10-13T07:31:14;39.75;;;23.90;;
29916;SDS011;16786;49.466;11.068;2022-10-13T07:33:44;37.95;;;21.45;;
29916;SDS011;16786;49.466;11.068;2022-10-13T07:36:15;37.63;;;22.23;;
29916;SDS011;16786;49.466;11.068;2022-10-13T07:38:44;38.67;;;22.55;;
29916;SDS011;16786;49.466;11.068;2022-10-13T07:41:13;39.35;;;22.00;;
29916;SDS011;16786;49.466;11.068;2022-10-13T07:43:41;32.22;;;19.15;;
29916;SDS011;16786;49.466;11.068;2022-10-13T07:46:11;35.08;;;21.30;;
29916;SDS011;16786;49.466;11.068;2022-10-13T07:48:39;33.55;;;18.83;;
29916;SDS011;16786;49.466;11.068;2022-10-13T07:51:08;30.92;;;19.30;;
29916;SDS011;16786;49.466;11.068;2022-10-13T07:53:38;33.80;;;18.13;;
29916;SDS011;16786;49.466;11.068;2022-10-13T07:56:08;30.95;;;19.08;;
29916;SDS011;16786;49.466;11.068;2022-10-13T07:58:38;31.92;;;19.85;;
29916;SDS011;16786;49.466;11.068;2022-10-13T08:01:08;31.48;;;19.40;;
29916;SDS011;16786;49.466;11.068;2022-10-13T08:03:38;35.20;;;20.95;;
29916;SDS011;16786;49.466;11.068;2022-10-13T08:06:16;27.02;;;18.38;;
29916;SDS011;16786;49.466;11.068;2022-10-13T08:08:44;28.00;;;17.65;;
29916;SDS011;16786;49.466;11.068;2022-10-13T08:11:15;30.10;;;18.65;;
29916;SDS011;16786;49.466;11.068;2022-10-13T08:13:46;27.27;;;17.42;;
29916;SDS011;16786;49.466;11.068;2022-10-13T08:16:19;29.35;;;17.35;;
29916;SDS011;16786;49.466;11.068;2022-10-13T08:18:46;29.38;;;17.63;;
29916;SDS011;16786;49.466;11.068;2022-10-13T08:21:14;30.80;;;18.88;;
29916;SDS011;16786;49.466;11.068;2022-10-13T08:24:04;31.33;;;17.85;;
29916;SDS011;16786;49.466;11.068;2022-10-13T08:26:36;27.90;;;18.35;;
29916;SDS011;16786;49.466;11.068;2022-10-13T08:29:04;29.45;;;17.75;;
29916;SDS011;16786;49.466;11.068;2022-10-13T08:31:50;25.92;;;17.05;;
29916;SDS011;16786;49.466;11.068;2022-10-13T08:34:19;30.58;;;18.45;;
29916;SDS011;16786;49.466;11.068;2022-10-13T08:36:48;29.90;;;17.88;;
29916;SDS011;16786;49.466;11.068;2022-10-13T08:39:20;29.47;;;17.73;;
29916;SDS011;16786;49.466;11.068;2022-10-13T08:41:48;25.80;;;16.60;;
29916;SDS011;16786;49.466;11.068;2022-10-13T08:44:24;24.45;;;15.85;;
29916;SDS011;16786;49.466;11.068;2022-10-13T08:47:59;26.40;;;17.35;;
29916;SDS011;16786;49.466;11.068;2022-10-13T08:50:13;26.13;;;15.85;;
29916;SDS011;16786;49.466;11.068;2022-10-13T08:52:51;24.17;;;16.10;;
29916;SDS011;16786;49.466;11.068;2022-10-13T08:55:28;27.08;;;16.38;;
29916;SDS011;16786;49.466;11.068;2022-10-13T08:58:05;24.70;;;16.25;;
29916;SDS011;16786;49.466;11.068;2022-10-13T09:00:38;26.60;;;15.18;;
29916;SDS011;16786;49.466;11.068;2022-10-13T09:03:18;26.48;;;16.75;;
29916;SDS011;16786;49.466;11.068;2022-10-13T09:08:38;23.17;;;15.15;;
29916;SDS011;16786;49.466;11.068;2022-10-13T09:11:19;23.40;;;14.85;;
29916;SDS011;16786;49.466;11.068;2022-10-13T09:13:47;23.42;;;15.40;;
29916;SDS011;16786;49.466;11.068;2022-10-13T09:16:14;26.65;;;14.77;;
29916;SDS011;16786;49.466;11.068;2022-10-13T09:18:46;21.70;;;14.27;;
29916;SDS011;16786;49.466;11.068;2022-10-13T09:21:18;20.92;;;14.45;;
29916;SDS011;16786;49.466;11.068;2022-10-13T09:23:51;22.80;;;14.88;;
29916;SDS011;16786;49.466;11.068;2022-10-13T09:26:21;21.27;;;14.93;;
29916;SDS011;16786;49.466;11.068;2022-10-13T09:28:50;23.67;;;15.05;;
29916;SDS011;16786;49.466;11.068;2022-10-13T09:31:26;20.52;;;14.63;;
29916;SDS011;16786;49.466;11.068;2022-10-13T09:34:01;24.73;;;14.48;;
29916;SDS011;16786;49.466;11.068;2022-10-13T09:39:31;26.52;;;13.80;;
29916;SDS011;16786;49.466;11.068;2022-10-13T09:44:46;23.98;;;15.75;;
29916;SDS011;16786;49.466;11.068;2022-10-13T09:47:22;19.67;;;13.43;;
29916;SDS011;16786;49.466;11.068;2022-10-13T09:50:03;24.35;;;15.23;;
29916;SDS011;16786;49.466;11.068;2022-10-13T09:52:46;23.45;;;15.98;;
29916;SDS011;16786;49.466;11.068;2022-10-13T09:58:15;26.17;;;14.98;;
29916;SDS011;16786;49.466;11.068;2022-10-13T10:00:51;23.83;;;16.02;;
29916;SDS011;16786;49.466;11.068;2022-10-13T10:05:55;21.67;;;14.48;;
29916;SDS011;16786;49.466;11.068;2022-10-13T10:08:33;24.93;;;15.27;;
29916;SDS011;16786;49.466;11.068;2022-10-13T10:11:36;30.35;;;14.43;;
29916;SDS011;16786;49.466;11.068;2022-10-13T10:19:52;28.67;;;17.35;;
29916;SDS011;16786;49.466;11.068;2022-10-13T10:22:43;28.83;;;16.92;;
29916;SDS011;16786;49.466;11.068;2022-10-13T10:34:09;28.70;;;16.50;;
29916;SDS011;16786;49.466;11.068;2022-10-13T10:40:03;24.55;;;15.45;;
29916;SDS011;16786;49.466;11.068;2022-10-13T10:42:51;26.52;;;16.05;;
29916;SDS011;16786;49.466;11.068;2022-10-13T10:45:33;26.40;;;15.32;;
29916;SDS011;16786;49.466;11.068;2022-10-13T10:50:43;24.08;;;14.70;;
29916;SDS011;16786;49.466;11.068;2022-10-13T10:53:13;25.27;;;15.23;;
29916;SDS011;16786;49.466;11.068;2022-10-13T10:58:49;25.70;;;16.40;;
29916;SDS011;16786;49.466;11.068;2022-10-13T11:04:37;28.77;;;15.55;;
29916;SDS011;16786;49.466;11.068;2022-10-13T11:17:39;22.15;;;15.23;;
29916;SDS011;16786;49.466;11.068;2022-10-13T11:20:56;29.15;;;16.00;;
29916;SDS011;16786;49.466;11.068;2022-10-13T11:25:46;23.15;;;15.13;;
29916;SDS011;16786;49.466;11.068;2022-10-13T11:36:29;27.00;;;16.85;;
29916;SDS011;16786;49.466;11.068;2022-10-13T11:55:54;29.75;;;15.40;;
29916;SDS011;16786;49.466;11.068;2022-10-13T11:58:24;30.10;;;15.23;;
29916;SDS011;16786;49.466;11.068;2022-10-13T12:01:01;24.70;;;13.73;;
29916;SDS011;16786;49.466;11.068;2022-10-13T12:03:29;22.38;;;15.07;;
29916;SDS011;16786;49.466;11.068;2022-10-13T12:06:02;25.83;;;14.15;;
29916;SDS011;16786;49.466;11.068;2022-10-13T12:08:33;31.13;;;14.80;;
29916;SDS011;16786;49.466;11.068;2022-10-13T12:11:01;29.42;;;15.30;;
29916;SDS011;16786;49.466;11.068;2022-10-13T12:13:33;22.85;;;14.82;;
29916;SDS011;16786;49.466;11.068;2022-10-13T12:16:03;23.25;;;15.15;;
29916;SDS011;16786;49.466;11.068;2022-10-13T12:21:11;22.60;;;13.98;;
29916;SDS011;16786;49.466;11.068;2022-10-13T12:23:50;32.00;;;15.55;;
29916;SDS011;16786;49.466;11.068;2022-10-13T12:26:30;25.60;;;14.90;;
29916;SDS011;16786;49.466;11.068;2022-10-13T12:29:02;25.45;;;15.60;;
29916;SDS011;16786;49.466;11.068;2022-10-13T12:31:43;24.98;;;15.52;;
29916;SDS011;16786;49.466;11.068;2022-10-13T12:34:26;22.05;;;15.07;;
29916;SDS011;16786;49.466;11.068;2022-10-13T12:37:00;24.08;;;14.00;;
29916;SDS011;16786;49.466;11.068;2022-10-13T12:39:30;29.20;;;15.88;;
29916;SDS011;16786;49.466;11.068;2022-10-13T12:42:01;29.48;;;15.90;;
29916;SDS011;16786;49.466;11.068;2022-10-13T12:44:36;26.10;;;15.18;;
29916;SDS011;16786;49.466;11.068;2022-10-13T12:47:03;27.83;;;16.20;;
29916;SDS011;16786;49.466;11.068;2022-10-13T12:49:32;27.50;;;15.75;;
29916;SDS011;16786;49.466;11.068;2022-10-13T12:54:58;26.90;;;15.80;;
29916;SDS011;16786;49.466;11.068;2022-10-13T12:57:33;25.42;;;15.40;;
29916;SDS011;16786;49.466;11.068;2022-10-13T13:02:56;23.38;;;14.73;;
29916;SDS011;16786;49.466;11.068;2022-10-13T13:05:37;29.08;;;15.95;;
29916;SDS011;16786;49.466;11.068;2022-10-13T13:08:22;26.30;;;15.35;;
29916;SDS011;16786;49.466;11.068;2022-10-13T13:13:29;28.25;;;15.63;;
29916;SDS011;16786;49.466;11.068;2022-10-13T13:16:16;27.83;;;15.70;;
29916;SDS011;16786;49.466;11.068;2022-10-13T13:18:46;25.98;;;15.57;;
29916;SDS011;16786;49.466;11.068;2022-10-13T13:21:17;27.35;;;16.92;;
29916;SDS011;16786;49.466;11.068;2022-10-13T13:23:46;25.58;;;15.25;;
29916;SDS011;16786;49.466;11.068;2022-10-13T13:26:22;21.45;;;14.07;;
29916;SDS011;16786;49.466;11.068;2022-10-13T13:28:51;22.40;;;15.80;;
29916;SDS011;16786;49.466;11.068;2022-10-13T13:31:21;34.83;;;15.77;;
29916;SDS011;16786;49.466;11.068;2022-10-13T13:33:50;25.48;;;15.85;;
29916;SDS011;16786;49.466;11.068;2022-10-13T13:36:22;24.08;;;15.45;;
29916;SDS011;16786;49.466;11.068;2022-10-13T13:38:52;22.85;;;14.55;;
29916;SDS011;16786;49.466;11.068;2022-10-13T13:41:19;22.67;;;14.00;;
29916;SDS011;16786;49.466;11.068;2022-10-13T13:43:47;25.00;;;14.50;;
29916;SDS011;16786;49.466;11.068;2022-10-13T13:46:16;24.60;;;14.88;;
29916;SDS011;16786;49.466;11.068;2022-10-13T13:48:49;20.65;;;14.77;;
29916;SDS011;16786;49.466;11.068;2022-10-13T13:51:17;23.52;;;14.70;;
29916;SDS011;16786;49.466;11.068;2022-10-13T13:53:45;24.25;;;15.27;;
29916;SDS011;16786;49.466;11.068;2022-10-13T13:56:15;27.85;;;14.65;;
29916;SDS011;16786;49.466;11.068;2022-10-13T13:58:43;24.42;;;13.75;;
29916;SDS011;16786;49.466;11.068;2022-10-13T14:01:11;26.58;;;14.35;;
29916;SDS011;16786;49.466;11.068;2022-10-13T14:03:39;22.55;;;12.60;;
29916;SDS011;16786;49.466;11.068;2022-10-13T14:06:17;25.80;;;14.80;;
29916;SDS011;16786;49.466;11.068;2022-10-13T14:08:45;22.50;;;14.73;;
29916;SDS011;16786;49.466;11.068;2022-10-13T14:11:13;22.73;;;14.48;;
29916;SDS011;16786;49.466;11.068;2022-10-13T14:13:40;22.38;;;14.23;;
29916;SDS011;16786;49.466;11.068;2022-10-13T14:16:09;29.33;;;14.23;;
29916;SDS011;16786;49.466;11.068;2022-10-13T14:18:41;28.13;;;15.02;;
29916;SDS011;16786;49.466;11.068;2022-10-13T14:21:09;25.92;;;14.50;;
29916;SDS011;16786;49.466;11.068;2022-10-13T14:23:37;21.77;;;13.90;;
29916;SDS011;16786;49.466;11.068;2022-10-13T14:26:06;24.33;;;13.48;;
29916;SDS011;16786;49.466;11.068;2022-10-13T14:28:35;27.17;;;14.07;;
29916;SDS011;16786;49.466;11.068;2022-10-13T14:31:05;20.70;;;12.80;;
29916;SDS011;16786;49.466;11.068;2022-10-13T14:33:33;22.40;;;12.88;;
29916;SDS011;16786;49.466;11.068;2022-10-13T14:36:02;21.05;;;12.77;;
29916;SDS011;16786;49.466;11.068;2022-10-13T14:38:31;20.38;;;12.60;;
29916;SDS011;16786;49.466;11.068;2022-10-13T14:40:59;21.85;;;13.05;;
29916;SDS011;16786;49.466;11.068;2022-10-13T14:43:30;25.53;;;13.17;;
29916;SDS011;16786;49.466;11.068;2022-10-13T14:46:02;22.23;;;13.05;;
29916;SDS011;16786;49.466;11.068;2022-10-13T14:48:30;20.40;;;12.70;;
29916;SDS011;16786;49.466;11.068;2022-10-13T14:51:01;22.90;;;12.60;;
29916;SDS011;16786;49.466;11.068;2022-10-13T14:53:33;22.70;;;12.73;;
29916;SDS011;16786;49.466;11.068;2022-10-13T14:56:16;25.05;;;13.73;;
29916;SDS011;16786;49.466;11.068;2022-10-13T14:58:51;21.10;;;13.52;;
29916;SDS011;16786;49.466;11.068;2022-10-13T15:01:28;20.05;;;12.80;;
29916;SDS011;16786;49.466;11.068;2022-10-13T15:03:55;23.02;;;13.45;;
29916;SDS011;16786;49.466;11.068;2022-10-13T15:06:23;24.17;;;12.73;;
29916;SDS011;16786;49.466;11.068;2022-10-13T15:08:51;20.73;;;13.00;;
29916;SDS011;16786;49.466;11.068;2022-10-13T15:11:21;22.05;;;13.57;;
29916;SDS011;16786;49.466;11.068;2022-10-13T15:13:49;22.52;;;12.73;;
29916;SDS011;16786;49.466;11.068;2022-10-13T15:16:18;24.40;;;12.90;;
29916;SDS011;16786;49.466;11.068;2022-10-13T15:18:47;19.52;;;11.90;;
29916;SDS011;16786;49.466;11.068;2022-10-13T15:21:15;17.50;;;10.93;;
29916;SDS011;16786;49.466;11.068;2022-10-13T15:23:43;25.17;;;12.38;;
29916;SDS011;16786;49.466;11.068;2022-10-13T15:26:11;16.63;;;11.70;;
29916;SDS011;16786;49.466;11.068;2022-10-13T15:28:42;21.38;;;12.35;;
29916;SDS011;16786;49.466;11.068;2022-10-13T15:33:46;20.98;;;12.10;;
29916;SDS011;16786;49.466;11.068;2022-10-13T15:36:16;18.52;;;11.85;;
29916;SDS011;16786;49.466;11.068;2022-10-13T15:38:44;20.90;;;12.13;;
29916;SDS011;16786;49.466;11.068;2022-10-13T15:41:12;22.42;;;13.10;;
29916;SDS011;16786;49.466;11.068;2022-10-13T15:43:39;20.83;;;12.70;;
29916;SDS011;16786;49.466;11.068;2022-10-13T15:46:07;22.70;;;13.30;;
29916;SDS011;16786;49.466;11.068;2022-10-13T15:48:37;20.15;;;13.25;;
29916;SDS011;16786;49.466;11.068;2022-10-13T15:51:08;22.98;;;12.45;;
29916;SDS011;16786;49.466;11.068;2022-10-13T15:53:40;20.35;;;13.60;;
29916;SDS011;16786;49.466;11.068;2022-10-13T15:56:07;17.33;;;12.75;;
29916;SDS011;16786;49.466;11.068;2022-10-13T15:58:34;19.80;;;13.27;;
29916;SDS011;16786;49.466;11.068;2022-10-13T16:01:05;23.70;;;13.23;;
29916;SDS011;16786;49.466;11.068;2022-10-13T16:03:36;20.88;;;12.73;;
29916;SDS011;16786;49.466;11.068;2022-10-13T16:06:05;29.60;;;15.27;;
29916;SDS011;16786;49.466;11.068;2022-10-13T16:08:35;21.92;;;13.65;;
29916;SDS011;16786;49.466;11.068;2022-10-13T16:11:10;21.50;;;13.55;;
29916;SDS011;16786;49.466;11.068;2022-10-13T16:13:39;21.63;;;13.45;;
29916;SDS011;16786;49.466;11.068;2022-10-13T16:16:07;23.55;;;14.15;;
29916;SDS011;16786;49.466;11.068;2022-10-13T16:18:35;22.92;;;13.10;;
29916;SDS011;16786;49.466;11.068;2022-10-13T16:21:14;25.90;;;14.38;;
29916;SDS011;16786;49.466;11.068;2022-10-13T16:23:45;25.48;;;13.38;;
29916;SDS011;16786;49.466;11.068;2022-10-13T16:26:13;24.60;;;13.65;;
29916;SDS011;16786;49.466;11.068;2022-10-13T16:28:41;24.05;;;13.52;;
29916;SDS011;16786;49.466;11.068;2022-10-13T16:31:10;27.63;;;14.25;;
29916;SDS011;16786;49.466;11.068;2022-10-13T16:33:41;24.10;;;13.48;;